Aérodrome :
LOGIN :

S'inscrire | Disclaimer

   EN    FR    IT 

 










Légende :    VFR   VFR Marginal   IFR   IFR Intensif   IFR Très Intensif
Visi : 
Plafond : 
>= 8 km
>= 3000ft
5 à 8 km
1000 à 3000 ft
1500m à 5 km
500 à 1000 ft
800 à 1500m
200 à 500 ft
< 800m
< 200 ft
Symboles :   Orages  Brouillard  Fortes neiges  Fortes précipitations  Vent > 20 kt
SIGMETs :   Divers  Orages  Givrage  Turbulence  Onde Orograph.  Cendres Volcan.







- Altitude de l'aérodrome : 1161 ft
- Code IATA : RJL


LELO - Logroño-Agoncillo

DERNIER METAR :
  • 190730Z VRB02KT CAVOK 20/17 Q1017

METARs EXPIRÉS :
  • 190700Z VRB02KT CAVOK 19/17 Q1017
  • 190630Z 00000KT CAVOK 18/17 Q1017
  • 190600Z VRB01KT CAVOK 17/16 Q1017
  • 190530Z 00000KT CAVOK 16/16 Q1017
  • 190500Z 28002KT CAVOK 16/15 Q1016

TAF TAF LELO
Valide du 19 à 06h jusqu'au 19 à 15h UTC


190500Z 1906/1915 VRB05KT 9999 FEW040
PROB40
TEMPO 1913/1915 4000 SHRA FEW040TCU
Pas de NOTAMs connus pour ce terrain.
1 SIGMET publié pour la FIR Madrid (LECM) :
 
Orages noyés dans la masse
LECM SIGMET 1 VALID 190601/190800 LEVA
LECM MADRID FIR/UIR EMBD TS OBS AT 0601Z WI N4431 W00505 - N4347 W00550 - N4357 W00731 - N4447 W00641 - N4431 W00505 TOP FL380 MOV NE 15KT NC=



MET'MAP, la Météo Aéronautique d'un coup d'oeil ! - Copyright ORBIFLY Décembre 2007 - Disclaimer

ORBIFLY MET'MAP TEAM :

Programmation & Développement : Alexandra Zaïnal
Conception & Développement : Baudouin d'Aumeries
Co-Programmation & Développement : Marc-Olivier Méhu
Soutien technique & logistique : Manuel Goepfert

Contact : metmap@orbifly.com




SOURCES & CREDITS :

   NOAA